Time;durP1;ratioP1;P1;durP2;ratioP2;P2;SDS_P1;SDS_P2;PMS_P1;PMS_P2;Temp;Humidity;BMP_temperature;BMP_pressure;BME280_temperature;BME280_humidity;BME280_pressure;Samples;Min_cycle;Max_cycle;Signal;HPM_P1;HPM_P2
2023/04/10 00:01:59;;;;;;;6.55;5.95;;;;;;;5.36;92.08;99158.47;4169302;28;20250;-47
2023/04/10 00:04:02;;;;;;;5.88;5.43;;;;;;;5.37;92.38;99155.53;4184155;28;20253;-46
2023/04/10 00:06:06;;;;;;;5.97;5.47;;;;;;;5.35;92.38;99154.09;4167949;28;20243;-47
2023/04/10 00:08:08;;;;;;;7.57;6.97;;;;;;;5.31;92.66;99155.50;4152049;28;20264;-46
2023/04/10 00:10:10;;;;;;;7.13;6.40;;;;;;;5.29;92.75;99152.16;4170647;28;20223;-47
2023/04/10 00:12:11;;;;;;;6.82;6.32;;;;;;;5.31;92.86;99147.38;4160359;28;20228;-47
2023/04/10 00:14:13;;;;;;;7.82;7.13;;;;;;;5.39;92.92;99144.47;4167046;28;20259;-46
2023/04/10 00:16:15;;;;;;;8.40;7.80;;;;;;;5.26;93.04;99141.69;4154586;28;21042;-47
2023/04/10 00:18:17;;;;;;;7.93;7.22;;;;;;;5.31;93.02;99131.09;4176482;28;20207;-47
2023/04/10 00:20:18;;;;;;;5.97;5.47;;;;;;;5.21;93.21;99145.03;4172176;28;20242;-46
2023/04/10 00:22:20;;;;;;;6.68;6.15;;;;;;;5.18;93.53;99140.00;4193421;28;20297;-47
2023/04/10 00:24:22;;;;;;;6.30;5.80;;;;;;;5.18;93.10;99139.16;4184322;28;20295;-46
2023/04/10 00:26:25;;;;;;;5.03;4.63;;;;;;;5.22;93.25;99140.44;4160328;28;20204;-46
2023/04/10 00:28:26;;;;;;;4.63;4.25;;;;;;;5.21;92.96;99155.03;4182845;28;20314;-46
2023/04/10 00:30:28;;;;;;;5.63;5.10;;;;;;;5.25;93.16;99145.47;4138705;28;20304;-47
2023/04/10 00:32:30;;;;;;;4.13;3.83;;;;;;;5.23;92.60;99147.53;4167211;28;20308;-46
2023/04/10 00:35:27;;;;;;;4.20;3.90;;;;;;;5.15;92.31;99161.28;4175117;28;20231;-47
2023/04/10 00:37:30;;;;;;;5.03;4.63;;;;;;;5.11;92.62;99160.00;4174764;28;20255;-47
2023/04/10 00:39:32;;;;;;;8.02;7.30;;;;;;;5.22;93.01;99170.28;4176291;28;20219;-47
2023/04/10 00:41:34;;;;;;;8.40;7.60;;;;;;;5.17;93.07;99164.63;4166676;28;20239;-46
2023/04/10 00:43:36;;;;;;;6.20;5.70;;;;;;;5.07;92.98;99166.84;4169725;28;20215;-46
2023/04/10 00:45:38;;;;;;;5.53;4.97;;;;;;;5.06;93.43;99157.03;4169824;28;20612;-47
2023/04/10 00:47:40;;;;;;;5.00;4.60;;;;;;;4.99;93.60;99160.75;4172521;28;20238;-48
2023/04/10 00:49:42;;;;;;;6.43;5.90;;;;;;;4.87;93.79;99160.44;4190198;28;20545;-47
2023/04/10 00:51:45;;;;;;;6.22;5.72;;;;;;;4.85;94.17;99157.09;4173032;28;20311;-47
2023/04/10 00:53:50;;;;;;;6.00;5.50;;;;;;;5.00;93.47;99157.00;4171456;28;20368;-46
2023/04/10 00:55:53;;;;;;;5.72;5.32;;;;;;;4.85;94.41;99157.09;4170912;28;20228;-46
2023/04/10 00:57:55;;;;;;;7.78;6.97;;;;;;;4.77;94.32;99157.28;4172479;28;20319;-46
2023/04/10 00:59:57;;;;;;;6.13;5.65;;;;;;;4.88;94.79;99150.44;4169006;28;20724;-47
2023/04/10 01:05:14;;;;;;;6.68;6.07;;;;;;;4.85;95.44;99143.56;4170028;28;20276;-46
2023/04/10 01:07:41;;;;;;;6.25;5.75;;;;;;;4.82;95.21;99143.13;4170627;28;20311;-46
2023/04/10 01:09:56;;;;;;;5.68;5.18;;;;;;;4.90;94.67;99143.81;4170803;28;20231;-46
2023/04/10 01:12:20;;;;;;;5.43;4.95;;;;;;;4.67;95.52;99137.78;4162034;28;20295;-46
2023/04/10 01:14:39;;;;;;;6.07;5.47;;;;;;;4.22;96.30;99130.16;4170854;28;20251;-47
2023/04/10 01:16:48;;;;;;;7.05;6.45;;;;;;;4.35;96.84;99130.22;4179203;28;20281;-47
2023/04/10 01:18:56;;;;;;;6.82;5.55;;;;;;;4.44;96.01;99123.66;4157646;28;20211;-46
2023/04/10 01:20:58;;;;;;;7.22;6.55;;;;;;;4.54;95.80;99117.91;4170950;28;20287;-46
2023/04/10 01:23:19;;;;;;;6.63;6.10;;;;;;;4.66;95.65;99121.75;4179452;28;20243;-46
2023/04/10 01:25:59;;;;;;;5.78;5.28;;;;;;;4.52;95.26;99118.09;4171471;28;20250;-46
2023/04/10 01:28:06;;;;;;;5.63;5.22;;;;;;;4.56;95.53;99113.97;4172260;28;20235;-46
2023/04/10 01:30:11;;;;;;;6.38;5.88;;;;;;;4.46;95.65;99112.63;4169251;28;20228;-46
2023/04/10 01:32:16;;;;;;;6.25;5.78;;;;;;;4.44;95.77;99106.56;4179047;28;20303;-47
2023/04/10 01:34:21;;;;;;;5.78;5.38;;;;;;;4.41;95.59;99107.78;4169057;28;20240;-47
2023/04/10 01:36:28;;;;;;;5.57;5.07;;;;;;;4.38;95.93;99113.59;4170298;28;20210;-47
2023/04/10 01:38:30;;;;;;;5.18;4.78;;;;;;;4.40;96.20;99114.22;4155770;28;20221;-47
2023/04/10 01:40:33;;;;;;;5.65;5.25;;;;;;;4.43;96.27;99110.31;4171061;28;20297;-47
2023/04/10 01:42:40;;;;;;;6.45;5.95;;;;;;;4.38;96.07;99113.59;4171274;28;20218;-47
2023/04/10 01:44:49;;;;;;;6.13;5.55;;;;;;;4.41;96.40;99117.78;4178932;28;20279;-46
2023/04/10 01:46:51;;;;;;;8.60;5.50;;;;;;;4.43;96.14;99110.31;4178419;28;20231;-46
2023/04/10 01:48:53;;;;;;;5.53;5.13;;;;;;;4.48;95.98;99107.84;4168261;28;20295;-46
2023/04/10 01:50:55;;;;;;;5.75;5.25;;;;;;;4.50;95.87;99117.47;4172266;28;20295;-47
2023/04/10 01:52:58;;;;;;;6.53;6.03;;;;;;;4.49;96.18;99117.66;4169270;28;20208;-46
2023/04/10 01:55:01;;;;;;;6.28;5.57;;;;;;;4.43;95.94;99108.44;4174185;28;20231;-47
2023/04/10 01:57:03;;;;;;;5.65;5.15;;;;;;;4.44;96.11;99114.69;4177689;28;20322;-47
2023/04/10 01:59:05;;;;;;;5.72;5.32;;;;;;;4.47;95.86;99111.59;4170842;28;20215;-47
2023/04/10 02:01:07;;;;;;;6.70;6.30;;;;;;;4.45;95.50;99117.19;4170920;28;20216;-46
2023/04/10 02:03:16;;;;;;;5.47;5.07;;;;;;;4.45;95.64;99114.50;4192695;28;20203;-46
2023/04/10 02:05:19;;;;;;;6.07;5.57;;;;;;;4.45;95.94;99111.78;4168893;28;20291;-47
2023/04/10 02:07:35;;;;;;;5.60;5.10;;;;;;;4.43;95.85;99116.56;4169361;28;20264;-46
2023/04/10 02:09:49;;;;;;;4.90;4.60;;;;;;;4.39;95.87;99109.84;4169694;28;20288;-46
2023/04/10 02:11:58;;;;;;;7.30;5.85;;;;;;;4.33;95.87;99109.81;4185072;28;20299;-46
2023/04/10 02:14:03;;;;;;;5.85;5.45;;;;;;;4.31;96.27;99107.28;4168978;28;20228;-47
2023/04/10 02:16:07;;;;;;;5.60;5.10;;;;;;;4.34;95.90;99106.88;4172528;28;20634;-46
2023/04/10 02:18:09;;;;;;;5.43;5.03;;;;;;;4.31;96.17;99096.47;4173665;28;20613;-47
2023/04/10 02:20:11;;;;;;;5.75;5.28;;;;;;;4.32;96.13;99103.56;4178388;28;20673;-46
2023/04/10 02:22:14;;;;;;;5.75;5.18;;;;;;;4.29;96.47;99095.84;4176578;28;20214;-46
2023/04/10 02:24:18;;;;;;;5.43;5.00;;;;;;;4.29;96.39;99098.53;4176496;28;20208;-46
2023/04/10 02:26:19;;;;;;;6.20;5.70;;;;;;;4.20;96.44;99088.88;4169894;28;20210;-46
2023/04/10 02:28:21;;;;;;;6.10;5.60;;;;;;;4.22;96.80;99102.22;4178655;28;20302;-46
2023/04/10 02:30:23;;;;;;;6.30;5.57;;;;;;;4.20;96.76;99102.41;4166348;28;20270;-47
2023/04/10 02:32:26;;;;;;;5.50;5.00;;;;;;;4.17;96.95;99099.25;4169729;28;20236;-46
2023/04/10 02:34:27;;;;;;;5.25;4.85;;;;;;;4.15;97.00;99091.31;4204785;28;20268;-46
2023/04/10 02:36:29;;;;;;;5.00;4.60;;;;;;;4.16;97.01;99092.16;4167208;28;20653;-46
2023/04/10 02:38:52;;;;;;;5.50;4.90;;;;;;;4.22;97.00;99086.81;4161538;28;20378;-46
2023/04/10 02:40:54;;;;;;;4.80;4.40;;;;;;;4.22;97.16;99081.41;4169355;28;20197;-47
2023/04/10 02:42:56;;;;;;;5.97;5.47;;;;;;;4.25;97.21;99078.28;4177993;28;20208;-46
2023/04/10 02:44:58;;;;;;;5.82;5.43;;;;;;;4.33;97.28;99082.72;4152993;28;20205;-46
2023/04/10 02:46:59;;;;;;;8.25;7.55;;;;;;;4.30;96.90;99075.84;4187768;28;20228;-47
2023/04/10 02:49:01;;;;;;;11.65;10.27;;;;;;;4.25;96.88;99086.41;4199635;28;20207;-46
2023/04/10 02:51:03;;;;;;;10.73;9.73;;;;;;;4.27;97.29;99073.50;4160039;28;20236;-46
2023/04/10 02:53:05;;;;;;;9.32;8.43;;;;;;;4.27;97.19;99067.25;4172012;28;20247;-49
2023/04/10 02:55:07;;;;;;;10.27;9.40;;;;;;;4.26;97.16;99074.53;4167905;28;20311;-47
2023/04/10 02:57:09;;;;;;;8.38;7.60;;;;;;;4.18;97.24;99073.84;4169402;28;20267;-47
2023/04/10 02:59:12;;;;;;;7.75;7.22;;;;;;;4.14;97.01;99070.69;4177929;28;20204;-46
2023/04/10 03:01:13;;;;;;;7.78;7.07;;;;;;;4.13;96.73;99065.50;4177838;28;20666;-46
2023/04/10 03:03:17;;;;;;;8.25;7.55;;;;;;;4.09;96.92;99058.78;4174123;28;20211;-46
2023/04/10 03:05:19;;;;;;;8.57;7.88;;;;;;;4.12;96.97;99052.94;4167633;28;20568;-47
2023/04/10 03:07:21;;;;;;;7.28;6.68;;;;;;;4.06;97.25;99049.16;4161245;28;20252;-46
2023/04/10 03:09:22;;;;;;;8.13;7.53;;;;;;;4.01;97.62;99046.19;4201463;28;20206;-47
2023/04/10 03:11:24;;;;;;;8.70;8.00;;;;;;;4.03;98.17;99048.72;4144516;28;20419;-46
2023/04/10 03:13:26;;;;;;;7.43;6.82;;;;;;;4.01;98.13;99051.63;4184496;28;20298;-47
2023/04/10 03:15:28;;;;;;;7.93;7.32;;;;;;;3.94;97.95;99050.72;4169605;28;20228;-46
2023/04/10 03:17:29;;;;;;;8.35;7.65;;;;;;;3.95;98.23;99051.56;4176154;28;20230;-47
2023/04/10 03:19:31;;;;;;;7.65;6.95;;;;;;;3.94;97.98;99050.72;4192479;28;20211;-46
2023/04/10 03:21:33;;;;;;;7.65;6.80;;;;;;;3.90;98.31;99046.75;4172943;28;20299;-46
2023/04/10 03:23:35;;;;;;;7.13;6.63;;;;;;;3.99;98.19;99042.88;4173191;28;20284;-46
2023/04/10 03:25:37;;;;;;;8.13;7.22;;;;;;;4.01;98.52;99046.19;4168498;28;20236;-46
2023/04/10 03:27:38;;;;;;;6.28;5.68;;;;;;;3.94;98.32;99044.50;4168759;28;20323;-46
2023/04/10 03:29:40;;;;;;;6.07;5.57;;;;;;;3.93;98.78;99046.34;4172603;28;20212;-47
2023/04/10 03:31:42;;;;;;;4.65;4.35;;;;;;;3.87;98.80;99044.41;4175696;28;20286;-47
2023/04/10 03:33:44;;;;;;;5.40;4.97;;;;;;;3.81;98.49;99044.38;4176791;28;20242;-46
2023/04/10 03:35:46;;;;;;;5.93;5.53;;;;;;;3.82;98.97;99046.03;4187512;28;20199;-46
2023/04/10 03:37:48;;;;;;;5.75;5.30;;;;;;;3.79;98.72;99036.44;4177052;28;20224;-47
2023/04/10 03:39:49;;;;;;;5.78;5.28;;;;;;;3.80;98.54;99032.69;4189476;28;20215;-47
2023/04/10 03:41:51;;;;;;;5.85;5.45;;;;;;;3.79;98.93;99036.44;4170464;28;20204;-47
2023/04/10 03:43:53;;;;;;;5.63;5.22;;;;;;;3.75;99.21;99035.16;4147719;28;20316;-46
2023/04/10 03:45:55;;;;;;;7.80;5.25;;;;;;;3.81;99.04;99034.38;4192201;28;20203;-47
2023/04/10 03:47:57;;;;;;;6.25;5.75;;;;;;;3.72;99.18;99045.53;4154592;28;20699;-46
2023/04/10 03:49:59;;;;;;;6.03;5.63;;;;;;;3.71;99.27;99039.28;4202059;28;20293;-46
2023/04/10 03:52:01;;;;;;;6.30;5.82;;;;;;;3.79;99.00;99044.56;4175293;28;20719;-46
2023/04/10 03:54:03;;;;;;;6.00;5.50;;;;;;;3.76;99.18;99044.97;4177057;28;20230;-47
2023/04/10 03:56:05;;;;;;;6.15;5.68;;;;;;;3.73;98.58;99048.03;4169333;28;20295;-47
2023/04/10 03:58:07;;;;;;;5.57;5.18;;;;;;;3.72;99.12;99040.97;4185367;28;20217;-46
2023/04/10 04:00:09;;;;;;;6.18;5.68;;;;;;;3.71;99.10;99044.69;4184457;28;20214;-46
2023/04/10 04:02:11;;;;;;;6.47;6.05;;;;;;;3.68;99.22;99041.53;4150862;28;20341;-47
2023/04/10 04:04:13;;;;;;;6.50;6.00;;;;;;;3.63;98.93;99052.97;4169733;28;20283;-48
2023/04/10 04:06:15;;;;;;;5.68;5.28;;;;;;;3.61;99.21;99055.00;4183554;28;20204;-46
2023/04/10 04:08:16;;;;;;;6.25;5.75;;;;;;;3.57;99.28;99042.91;4177262;28;20207;-47
2023/04/10 04:10:18;;;;;;;7.22;5.60;;;;;;;3.54;99.20;99043.28;4176960;28;20294;-46
2023/04/10 04:12:20;;;;;;;5.40;5.00;;;;;;;3.60;99.73;99037.09;4177225;28;20239;-46
2023/04/10 04:14:22;;;;;;;5.22;4.82;;;;;;;3.53;99.20;99044.31;4185775;28;20251;-47
2023/04/10 04:16:24;;;;;;;6.72;6.13;;;;;;;3.59;99.45;99048.94;4168892;28;20209;-47
2023/04/10 04:18:28;;;;;;;7.30;6.78;;;;;;;3.54;99.50;99047.84;4173333;28;20208;-46
2023/04/10 04:20:30;;;;;;;5.38;4.97;;;;;;;3.57;99.56;99047.47;4160306;28;20232;-48
2023/04/10 04:22:32;;;;;;;5.95;5.40;;;;;;;3.64;99.66;99049.22;4170258;28;20309;-46
2023/04/10 04:24:33;;;;;;;6.05;5.55;;;;;;;3.60;99.26;99050.63;4171659;28;20574;-46
2023/04/10 04:26:35;;;;;;;6.32;5.82;;;;;;;3.68;99.30;99038.84;4174679;28;20251;-46
2023/04/10 04:28:37;;;;;;;7.30;6.60;;;;;;;3.63;99.31;99046.69;4191216;28;20221;-46
2023/04/10 04:30:38;;;;;;;6.57;6.07;;;;;;;3.57;99.07;99053.72;4179026;28;20242;-46
2023/04/10 04:32:40;;;;;;;6.47;5.97;;;;;;;3.50;99.11;99052.81;4179223;28;20287;-46
2023/04/10 04:34:42;;;;;;;6.22;5.60;;;;;;;3.50;99.56;99055.53;4156051;28;20296;-46
2023/04/10 04:36:43;;;;;;;6.47;5.97;;;;;;;3.41;99.70;99048.53;4153589;28;20756;-46
2023/04/10 04:38:45;;;;;;;7.20;6.63;;;;;;;3.48;100.00;99049.44;4172860;28;20295;-46
2023/04/10 04:40:47;;;;;;;7.15;6.60;;;;;;;3.43;99.71;99056.47;4163180;28;20364;-47
2023/04/10 04:42:48;;;;;;;7.88;7.25;;;;;;;3.41;99.94;99051.25;4159411;28;20292;-47
2023/04/10 04:44:50;;;;;;;5.10;4.70;;;;;;;3.38;100.00;99053.50;4156627;28;20201;-46
2023/04/10 04:46:52;;;;;;;6.45;5.88;;;;;;;3.37;100.00;99058.09;4174267;28;20320;-47
2023/04/10 04:48:54;;;;;;;6.13;5.63;;;;;;;3.44;100.00;99058.16;4193728;28;20242;-48
2023/04/10 04:50:55;;;;;;;6.70;6.22;;;;;;;3.38;100.00;99050.78;4178693;28;20287;-48
2023/04/10 04:52:59;;;;;;;6.80;6.28;;;;;;;3.43;100.00;99051.06;4172545;28;20209;-47
2023/04/10 04:55:00;;;;;;;5.85;5.32;;;;;;;3.36;100.00;99050.16;4179879;28;20235;-46
2023/04/10 04:57:03;;;;;;;6.70;6.20;;;;;;;3.38;100.00;99048.94;4177482;28;20297;-46
2023/04/10 04:59:04;;;;;;;7.07;6.57;;;;;;;3.34;100.00;99047.63;4169101;28;20216;-47
2023/04/10 05:01:07;;;;;;;7.15;6.65;;;;;;;3.26;100.00;99039.66;4169957;28;20209;-47
2023/04/10 05:03:09;;;;;;;7.38;6.28;;;;;;;3.36;100.00;99048.31;4175093;28;20212;-47
2023/04/10 05:05:11;;;;;;;6.47;5.90;;;;;;;3.26;100.00;99045.06;4184725;28;20664;-46
2023/04/10 05:07:13;;;;;;;7.63;6.15;;;;;;;3.30;100.00;99045.50;4160843;28;20326;-46
2023/04/10 05:09:14;;;;;;;5.50;5.07;;;;;;;3.30;100.00;99035.53;4178986;28;20219;-47
2023/04/10 05:11:16;;;;;;;6.15;5.53;;;;;;;3.30;100.00;99040.97;4203651;28;20234;-47
2023/04/10 05:13:18;;;;;;;6.82;6.22;;;;;;;3.29;100.00;99044.69;4173046;28;20662;-47
2023/04/10 05:15:19;;;;;;;6.85;6.35;;;;;;;3.24;100.00;99040.88;4156138;28;20236;-46
2023/04/10 05:17:21;;;;;;;7.32;6.72;;;;;;;3.28;100.00;99031.34;4173401;28;20260;-46
2023/04/10 05:19:23;;;;;;;6.43;5.93;;;;;;;3.26;100.00;99034.25;4171175;28;20219;-47
2023/04/10 05:21:26;;;;;;;7.07;6.30;;;;;;;3.25;100.00;99042.53;4171911;28;20236;-47
2023/04/10 05:23:27;;;;;;;7.40;6.78;;;;;;;3.22;100.00;99038.38;4196192;28;20859;-47
2023/04/10 05:25:29;;;;;;;8.40;6.22;;;;;;;3.20;100.00;99045.81;4171284;28;20264;-46
2023/04/10 05:27:31;;;;;;;7.22;6.63;;;;;;;3.25;100.00;99037.97;4170699;28;20267;-46
2023/04/10 05:29:33;;;;;;;7.32;6.72;;;;;;;3.24;100.00;99036.31;4189251;28;20647;-46
2023/04/10 05:31:35;;;;;;;7.43;6.82;;;;;;;3.21;100.00;99036.66;4172398;28;20673;-46
2023/04/10 05:33:37;;;;;;;6.88;6.38;;;;;;;3.18;100.00;99030.81;4172490;28;20307;-46
2023/04/10 05:35:39;;;;;;;6.95;6.30;;;;;;;3.21;100.00;99035.84;4178579;28;20212;-46
2023/04/10 05:37:40;;;;;;;5.78;5.28;;;;;;;3.18;100.00;99031.66;4162998;28;20235;-46
2023/04/10 05:39:42;;;;;;;6.53;5.93;;;;;;;3.22;100.00;99038.38;4169043;28;20208;-46
2023/04/10 05:41:44;;;;;;;7.55;6.95;;;;;;;3.25;100.00;99037.97;4170615;28;20295;-46
2023/04/10 05:43:45;;;;;;;7.45;6.82;;;;;;;3.27;100.00;99046.72;4185594;28;20235;-46
2023/04/10 05:45:47;;;;;;;6.90;6.38;;;;;;;3.44;100.00;99048.19;4170351;28;20677;-46
2023/04/10 05:47:49;;;;;;;7.80;7.03;;;;;;;3.45;100.00;99049.84;4152599;28;20233;-46
2023/04/10 05:49:51;;;;;;;6.60;6.05;;;;;;;3.44;100.00;99048.19;4171723;28;20211;-46
2023/04/10 05:51:53;;;;;;;7.47;6.88;;;;;;;3.52;100.00;99045.34;4169291;28;20219;-46
2023/04/10 05:53:55;;;;;;;9.55;6.82;;;;;;;3.59;100.00;99046.25;4172301;28;20234;-47
2023/04/10 05:55:58;;;;;;;7.25;6.75;;;;;;;3.66;100.00;99052.56;4169709;28;20650;-47
2023/04/10 05:58:00;;;;;;;8.38;7.68;;;;;;;3.71;100.00;99055.53;4162680;28;20232;-46
2023/04/10 06:00:02;;;;;;;7.57;6.97;;;;;;;3.74;100.00;99051.59;4170386;28;20624;-47
2023/04/10 06:02:03;;;;;;;8.35;7.72;;;;;;;3.87;100.00;99049.84;4170692;28;20208;-47
2023/04/10 06:04:05;;;;;;;7.90;7.18;;;;;;;3.86;100.00;99053.56;4161388;28;20220;-47
2023/04/10 06:06:07;;;;;;;8.90;8.27;;;;;;;4.29;100.00;99054.34;4152565;28;20205;-47
2023/04/10 06:08:09;;;;;;;8.68;7.95;;;;;;;4.55;100.00;99052.69;4170713;28;20211;-47
2023/04/10 06:10:11;;;;;;;9.45;7.95;;;;;;;5.00;100.00;99052.06;4168781;28;20207;-47
2023/04/10 06:12:13;;;;;;;9.55;8.80;;;;;;;5.28;100.00;99055.50;4160305;28;21074;-47
2023/04/10 06:14:16;;;;;;;7.30;6.72;;;;;;;5.31;100.00;99047.00;4173996;28;20239;-48
2023/04/10 06:16:18;;;;;;;9.32;8.35;;;;;;;5.74;100.00;99053.75;4169843;28;20252;-47
2023/04/10 06:18:20;;;;;;;8.60;7.90;;;;;;;5.90;100.00;99050.69;4171755;28;20651;-47
2023/04/10 06:20:22;;;;;;;9.50;8.75;;;;;;;6.14;100.00;99053.63;4169673;28;20256;-47
2023/04/10 06:22:24;;;;;;;8.75;8.05;;;;;;;6.30;99.50;99044.22;4177708;28;20208;-47
2023/04/10 06:24:26;;;;;;;8.00;7.32;;;;;;;6.01;99.12;99039.19;4177801;28;20227;-49
2023/04/10 06:26:27;;;;;;;8.13;7.45;;;;;;;6.38;99.59;99041.28;4167279;28;20279;-48
2023/04/10 06:28:29;;;;;;;8.60;7.90;;;;;;;6.47;98.03;99049.03;4169180;28;20250;-47
2023/04/10 06:30:33;;;;;;;9.18;8.48;;;;;;;6.83;97.05;99041.19;4168330;28;21242;-47
2023/04/10 06:32:35;;;;;;;7.70;7.00;;;;;;;7.13;94.95;99044.22;4161983;28;20235;-47
2023/04/10 06:34:36;;;;;;;8.52;7.93;;;;;;;7.26;93.18;99044.19;4198787;28;20207;-48
2023/04/10 06:36:38;;;;;;;9.25;8.55;;;;;;;7.47;92.47;99043.88;4173448;28;20228;-47
2023/04/10 06:38:40;;;;;;;8.45;7.85;;;;;;;7.81;90.83;99038.03;4178253;28;20370;-49
2023/04/10 06:40:41;;;;;;;8.15;7.55;;;;;;;8.38;87.77;99032.34;4178170;28;20243;-47
2023/04/10 06:42:43;;;;;;;8.32;7.72;;;;;;;8.61;87.24;99032.56;4173165;28;20213;-47
2023/04/10 06:44:45;;;;;;;8.63;7.95;;;;;;;9.10;85.95;99032.44;4169352;28;20231;-48
2023/04/10 06:46:47;;;;;;;8.57;7.90;;;;;;;9.40;85.62;99033.31;4193570;28;20268;-47
2023/04/10 06:48:48;;;;;;;8.20;7.55;;;;;;;9.29;83.83;99036.84;4178265;28;20254;-48
2023/04/10 06:50:50;;;;;;;8.05;7.45;;;;;;;10.31;80.97;99032.00;4173941;28;20227;-47
2023/04/10 06:52:54;;;;;;;7.80;7.10;;;;;;;10.63;78.88;99038.81;4177015;28;20311;-47
2023/04/10 06:54:56;;;;;;;17.45;15.95;;;;;;;10.44;77.77;99031.75;4169131;28;20232;-47
2023/04/10 06:57:01;;;;;;;17.77;16.27;;;;;;;10.61;77.36;99044.50;4187886;28;20223;-47
2023/04/10 06:59:03;;;;;;;9.13;8.23;;;;;;;10.30;76.66;99039.38;4170740;28;20223;-47
2023/04/10 07:01:05;;;;;;;10.23;9.43;;;;;;;10.77;79.01;99041.06;4177228;28;20705;-47
2023/04/10 07:03:07;;;;;;;10.35;9.55;;;;;;;11.16;74.89;99032.06;4170910;28;20205;-48
2023/04/10 07:05:09;;;;;;;11.50;10.57;;;;;;;10.60;78.53;99031.06;4177562;28;20204;-47
2023/04/10 07:07:12;;;;;;;9.77;8.98;;;;;;;11.11;76.18;99032.81;4155073;28;20705;-47
2023/04/10 07:09:13;;;;;;;8.82;8.13;;;;;;;11.68;75.18;99031.84;4170627;28;20216;-47
2023/04/10 07:11:16;;;;;;;7.13;6.60;;;;;;;11.73;73.09;99033.84;4172957;28;20270;-48
2023/04/10 07:13:17;;;;;;;6.40;5.90;;;;;;;11.77;73.78;99024.88;4178234;28;20299;-47
2023/04/10 07:15:19;;;;;;;6.88;6.38;;;;;;;11.37;73.11;99015.84;4169214;28;20352;-48
2023/04/10 07:17:21;;;;;;;5.90;5.50;;;;;;;10.78;72.46;99016.19;4190522;28;20735;-47
2023/04/10 07:19:23;;;;;;;5.13;4.72;;;;;;;10.72;68.82;99008.09;4170779;28;20298;-48
2023/04/10 07:21:25;;;;;;;4.18;3.88;;;;;;;10.54;65.29;99005.47;4187702;28;20200;-47
2023/04/10 07:23:27;;;;;;;4.38;4.03;;;;;;;10.74;65.04;99003.22;4172247;28;20215;-47
2023/04/10 07:25:29;;;;;;;4.82;4.43;;;;;;;10.58;64.98;99005.84;4177411;28;20240;-47
2023/04/10 07:27:31;;;;;;;4.97;4.57;;;;;;;11.05;66.21;99009.13;4171297;28;20330;-47
2023/04/10 07:29:32;;;;;;;4.05;3.75;;;;;;;11.43;63.24;99006.66;4184876;28;20215;-47
2023/04/10 07:31:34;;;;;;;4.15;3.75;;;;;;;11.65;63.56;99012.31;4168111;28;20690;-47
2023/04/10 07:33:37;;;;;;;5.57;5.18;;;;;;;11.48;60.58;99004.00;4169550;28;20325;-48
2023/04/10 07:35:39;;;;;;;4.55;4.25;;;;;;;11.69;59.99;99000.63;4177231;28;20228;-47
2023/04/10 07:37:42;;;;;;;4.88;4.47;;;;;;;11.61;59.10;99002.91;4169540;28;20652;-48
2023/04/10 07:39:44;;;;;;;3.42;3.13;;;;;;;11.41;57.81;99005.22;4171687;28;20244;-47
2023/04/10 07:41:46;;;;;;;3.60;3.30;;;;;;;11.65;57.92;99004.91;4169828;28;20236;-47
2023/04/10 07:43:47;;;;;;;3.20;3.00;;;;;;;12.00;58.71;99007.50;4176311;28;20212;-48
2023/04/10 07:45:49;;;;;;;3.65;3.38;;;;;;;11.68;56.33;99009.91;4170618;28;20236;-47
2023/04/10 07:47:51;;;;;;;3.88;3.58;;;;;;;11.51;56.21;99014.47;4166202;28;20229;-47
2023/04/10 07:49:53;;;;;;;4.30;4.00;;;;;;;11.75;56.88;99020.72;4184406;28;20203;-48
2023/04/10 07:51:54;;;;;;;3.35;3.15;;;;;;;12.13;55.88;99002.53;4177341;28;20212;-48
2023/04/10 07:53:56;;;;;;;3.33;3.08;;;;;;;12.26;55.10;99004.94;4169163;28;20204;-47
2023/04/10 07:55:58;;;;;;;3.05;2.85;;;;;;;12.39;54.49;99001.88;4172110;28;20589;-47
2023/04/10 07:57:59;;;;;;;3.33;3.13;;;;;;;12.58;54.15;99005.19;4177665;28;20593;-47
2023/04/10 08:00:02;;;;;;;3.25;2.95;;;;;;;12.80;54.56;99004.16;4186099;28;20266;-47
2023/04/10 08:02:03;;;;;;;3.65;3.35;;;;;;;12.74;52.79;99002.44;4172265;28;20236;-47
2023/04/10 08:04:05;;;;;;;2.40;2.20;;;;;;;12.61;51.64;98993.69;4185323;28;20736;-47
2023/04/10 08:06:08;;;;;;;2.80;2.60;;;;;;;12.92;51.78;98987.56;4151618;28;20197;-47
2023/04/10 08:08:10;;;;;;;3.13;2.92;;;;;;;13.23;53.24;98987.75;4166768;28;20240;-48
2023/04/10 08:10:12;;;;;;;2.80;2.60;;;;;;;13.30;50.85;98993.88;4168657;28;20314;-48
2023/04/10 08:12:13;;;;;;;4.03;3.83;;;;;;;13.30;49.37;98991.13;4170464;28;20208;-47
2023/04/10 08:14:15;;;;;;;2.63;2.42;;;;;;;13.46;50.19;98987.50;4155390;28;20220;-47
2023/04/10 08:16:22;;;;;;;2.85;2.65;;;;;;;13.61;49.07;98984.91;4154200;28;20225;-47
2023/04/10 08:18:24;;;;;;;2.45;2.25;;;;;;;13.21;48.47;98984.44;4171263;28;20209;-47
2023/04/10 08:20:27;;;;;;;3.47;3.17;;;;;;;13.33;49.68;98987.91;4187609;28;20247;-46
2023/04/10 08:22:28;;;;;;;1.67;1.58;;;;;;;13.40;48.43;98983.03;4193371;28;20625;-47
2023/04/10 08:24:30;;;;;;;2.30;2.20;;;;;;;13.28;48.04;98989.72;4171287;28;20291;-47
2023/04/10 08:26:32;;;;;;;2.50;2.30;;;;;;;13.25;47.20;98985.56;4185302;28;20254;-47
2023/04/10 08:28:33;;;;;;;3.05;2.85;;;;;;;13.55;47.39;98982.34;4184611;28;20675;-47
2023/04/10 08:30:35;;;;;;;2.58;2.38;;;;;;;13.64;47.64;98978.88;4152190;28;20691;-46
2023/04/10 08:32:38;;;;;;;3.25;2.55;;;;;;;13.82;48.28;98970.28;4168609;28;20246;-47
2023/04/10 08:34:39;;;;;;;2.70;2.50;;;;;;;13.89;46.60;98970.09;4170757;28;20261;-47
2023/04/10 08:36:41;;;;;;;2.67;2.47;;;;;;;13.82;46.31;98970.28;4171617;28;20235;-47
2023/04/10 08:38:43;;;;;;;2.67;2.47;;;;;;;14.08;46.76;98974.94;4160072;28;20212;-46
2023/04/10 08:40:45;;;;;;;1.73;1.60;;;;;;;14.27;45.83;98962.50;4172606;28;20247;-47
2023/04/10 08:42:46;;;;;;;2.50;2.30;;;;;;;14.43;45.47;98967.03;4154780;28;20259;-47
2023/04/10 08:44:49;;;;;;;2.60;2.40;;;;;;;14.61;46.08;98971.28;4162033;28;20722;-46
2023/04/10 08:46:51;;;;;;;2.13;1.92;;;;;;;14.65;44.87;98970.50;4184922;28;20721;-47
2023/04/10 08:49:05;;;;;;;1.75;1.65;;;;;;;15.14;45.52;98963.63;4167655;28;20212;-47
2023/04/10 08:51:09;;;;;;;3.53;2.20;;;;;;;15.53;43.87;98967.69;4170234;28;20580;-47
2023/04/10 08:53:23;;;;;;;2.42;2.22;;;;;;;15.07;43.06;98957.53;4173041;28;20227;-47
2023/04/10 08:55:25;;;;;;;2.55;2.35;;;;;;;15.47;44.04;98951.38;4170667;28;20240;-47
2023/04/10 08:57:27;;;;;;;2.10;1.90;;;;;;;15.22;43.32;98949.31;4184022;28;20961;-48
2023/04/10 08:59:29;;;;;;;2.40;2.20;;;;;;;16.13;44.79;98945.72;4166993;28;20517;-47
2023/04/10 09:01:33;;;;;;;2.00;1.80;;;;;;;15.58;43.23;98948.41;4166174;28;20209;-47
2023/04/10 09:03:36;;;;;;;2.08;1.90;;;;;;;15.46;42.51;98950.56;4177278;28;20775;-47
2023/04/10 09:05:38;;;;;;;1.60;1.50;;;;;;;15.17;42.74;98942.97;4167601;28;20232;-47
2023/04/10 09:07:40;;;;;;;1.75;1.65;;;;;;;15.51;42.36;98942.28;4172510;28;20715;-47
2023/04/10 09:09:42;;;;;;;1.70;1.60;;;;;;;15.60;42.12;98934.31;4188286;28;20204;-47
2023/04/10 09:11:59;;;;;;;1.85;1.73;;;;;;;16.58;43.61;98933.84;4178267;28;20287;-47
2023/04/10 09:14:01;;;;;;;1.92;1.73;;;;;;;16.32;41.97;98935.78;4171018;28;20236;-47
2023/04/10 09:16:04;;;;;;;1.85;1.75;;;;;;;16.36;43.20;98934.13;4174833;28;20250;-48
2023/04/10 09:18:06;;;;;;;1.65;1.55;;;;;;;15.99;42.32;98939.09;4179845;28;20242;-47
2023/04/10 09:20:20;;;;;;;2.17;2.08;;;;;;;16.17;43.73;98933.00;4204247;28;20211;-47
2023/04/10 09:22:30;;;;;;;1.77;1.67;;;;;;;15.94;41.88;98925.28;4186758;28;20306;-47
2023/04/10 09:24:37;;;;;;;2.38;2.08;;;;;;;16.14;42.33;98930.81;4168576;28;20561;-47
2023/04/10 09:26:39;;;;;;;1.83;1.42;;;;;;;16.35;39.28;98921.41;4170407;28;20244;-47
2023/04/10 09:28:59;;;;;;;1.35;1.25;;;;;;;16.18;38.18;98914.50;4170710;28;20310;-47
2023/04/10 09:31:00;;;;;;;2.28;0.90;;;;;;;16.18;37.63;98920.03;4170217;28;20228;-47
2023/04/10 09:33:03;;;;;;;0.93;0.90;;;;;;;16.29;37.27;98910.66;4176165;28;20205;-47
2023/04/10 09:35:06;;;;;;;1.40;1.30;;;;;;;15.83;37.71;98901.50;4188572;28;20204;-46
2023/04/10 09:37:08;;;;;;;1.13;1.02;;;;;;;16.21;38.46;98900.97;4173105;28;20755;-47
2023/04/10 09:39:11;;;;;;;1.33;1.23;;;;;;;16.61;37.64;98903.72;4168826;28;20230;-47
2023/04/10 09:41:12;;;;;;;3.72;1.30;;;;;;;16.67;37.75;98899.84;4171847;28;20239;-47
2023/04/10 09:43:25;;;;;;;1.40;1.10;;;;;;;16.83;36.54;98890.41;4195330;28;20247;-46
2023/04/10 09:45:45;;;;;;;1.35;1.23;;;;;;;16.88;36.81;98892.34;4169817;28;20738;-47
2023/04/10 09:48:07;;;;;;;1.02;1.00;;;;;;;16.74;35.67;98903.16;4178750;28;20228;-49